sensor_id;sensor_type;location;lat;lon;timestamp;pressure;altitude;pressure_sealevel;temperature
77355;BMP280;66422;51.202;19.936;2023-04-09T00:12:26;100127.94;;;9.31
77355;BMP280;66422;51.202;19.936;2023-04-09T00:27:48;100122.69;;;9.32
77355;BMP280;66422;51.202;19.936;2023-04-09T00:43:08;100121.31;;;9.56
77355;BMP280;66422;51.202;19.936;2023-04-09T00:58:28;100115.63;;;9.31
77355;BMP280;66422;51.202;19.936;2023-04-09T01:29:48;100102.31;;;8.82
77355;BMP280;66422;51.202;19.936;2023-04-09T01:45:10;100102.48;;;8.34
77355;BMP280;66422;51.202;19.936;2023-04-09T02:00:38;100101.77;;;7.68
77355;BMP280;66422;51.202;19.936;2023-04-09T02:15:58;100095.54;;;7.74
77355;BMP280;66422;51.202;19.936;2023-04-09T02:31:19;100090.19;;;7.58
77355;BMP280;66422;51.202;19.936;2023-04-09T02:46:40;100084.06;;;7.57
77355;BMP280;66422;51.202;19.936;2023-04-09T03:01:59;100083.89;;;7.35
77355;BMP280;66422;51.202;19.936;2023-04-09T03:17:19;100081.05;;;6.99
77355;BMP280;66422;51.202;19.936;2023-04-09T03:32:39;100086.94;;;6.63
77355;BMP280;66422;51.202;19.936;2023-04-09T03:48:00;100085.64;;;6.41
77355;BMP280;66422;51.202;19.936;2023-04-09T04:03:19;100082.42;;;6.57
77355;BMP280;66422;51.202;19.936;2023-04-09T04:18:56;100087.40;;;6.29
77355;BMP280;66422;51.202;19.936;2023-04-09T04:34:16;100081.61;;;6.69
77355;BMP280;66422;51.202;19.936;2023-04-09T04:49:38;100090.91;;;6.79
77355;BMP280;66422;51.202;19.936;2023-04-09T05:04:58;100101.48;;;6.95
77355;BMP280;66422;51.202;19.936;2023-04-09T05:20:26;100109.43;;;7.19
77355;BMP280;66422;51.202;19.936;2023-04-09T05:35:55;100115.98;;;7.75
77355;BMP280;66422;51.202;19.936;2023-04-09T05:51:15;100109.65;;;8.88
77355;BMP280;66422;51.202;19.936;2023-04-09T06:06:38;100122.04;;;9.61
77355;BMP280;66422;51.202;19.936;2023-04-09T06:21:57;100123.48;;;9.72
77355;BMP280;66422;51.202;19.936;2023-04-09T06:37:17;100140.30;;;10.62
77355;BMP280;66422;51.202;19.936;2023-04-09T06:52:37;100148.02;;;10.97
77355;BMP280;66422;51.202;19.936;2023-04-09T07:07:56;100152.98;;;11.72
77355;BMP280;66422;51.202;19.936;2023-04-09T07:23:16;100163.23;;;11.26
77355;BMP280;66422;51.202;19.936;2023-04-09T07:38:36;100167.30;;;11.48
77355;BMP280;66422;51.202;19.936;2023-04-09T07:53:56;100166.92;;;12.27
77355;BMP280;66422;51.202;19.936;2023-04-09T08:09:19;100173.95;;;12.95
77355;BMP280;66422;51.202;19.936;2023-04-09T08:24:39;100176.69;;;15.09
77355;BMP280;66422;51.202;19.936;2023-04-09T08:39:59;100178.84;;;15.78
77355;BMP280;66422;51.202;19.936;2023-04-09T08:55:18;100174.08;;;16.13
77355;BMP280;66422;51.202;19.936;2023-04-09T09:10:43;100180.21;;;15.04
77355;BMP280;66422;51.202;19.936;2023-04-09T09:26:12;100175.71;;;14.43
77355;BMP280;66422;51.202;19.936;2023-04-09T09:41:32;100178.92;;;14.20
77355;BMP280;66422;51.202;19.936;2023-04-09T09:56:54;100181.65;;;14.63
77355;BMP280;66422;51.202;19.936;2023-04-09T10:12:15;100175.90;;;15.26
77355;BMP280;66422;51.202;19.936;2023-04-09T10:27:35;100164.83;;;15.06
77355;BMP280;66422;51.202;19.936;2023-04-09T10:42:56;100163.92;;;15.59
77355;BMP280;66422;51.202;19.936;2023-04-09T10:58:16;100157.65;;;15.63
77355;BMP280;66422;51.202;19.936;2023-04-09T11:13:39;100155.64;;;15.61
77355;BMP280;66422;51.202;19.936;2023-04-09T11:29:06;100139.56;;;15.89
77355;BMP280;66422;51.202;19.936;2023-04-09T11:44:27;100144.94;;;16.51
77355;BMP280;66422;51.202;19.936;2023-04-09T11:59:47;100148.17;;;16.62
77355;BMP280;66422;51.202;19.936;2023-04-09T12:15:25;100153.66;;;16.62
77355;BMP280;66422;51.202;19.936;2023-04-09T12:30:45;100152.23;;;16.09
77355;BMP280;66422;51.202;19.936;2023-04-09T12:46:07;100161.49;;;14.97
77355;BMP280;66422;51.202;19.936;2023-04-09T13:01:27;100154.17;;;15.43
77355;BMP280;66422;51.202;19.936;2023-04-09T13:16:47;100149.72;;;15.65
77355;BMP280;66422;51.202;19.936;2023-04-09T13:32:06;100144.55;;;15.98
77355;BMP280;66422;51.202;19.936;2023-04-09T13:47:26;100138.00;;;16.41
77355;BMP280;66422;51.202;19.936;2023-04-09T14:02:46;100136.02;;;16.00
77355;BMP280;66422;51.202;19.936;2023-04-09T14:18:06;100132.83;;;16.35
77355;BMP280;66422;51.202;19.936;2023-04-09T14:33:25;100124.66;;;15.77
77355;BMP280;66422;51.202;19.936;2023-04-09T14:48:45;100111.92;;;16.06
77355;BMP280;66422;51.202;19.936;2023-04-09T15:04:05;100097.89;;;16.10
77355;BMP280;66422;51.202;19.936;2023-04-09T15:19:24;100093.84;;;16.26
77355;BMP280;66422;51.202;19.936;2023-04-09T15:34:44;100090.15;;;15.97
77355;BMP280;66422;51.202;19.936;2023-04-09T15:50:04;100097.13;;;15.12
77355;BMP280;66422;51.202;19.936;2023-04-09T16:05:24;100106.64;;;14.90
77355;BMP280;66422;51.202;19.936;2023-04-09T16:20:44;100114.81;;;15.10
77355;BMP280;66422;51.202;19.936;2023-04-09T16:36:05;100108.73;;;15.30
77355;BMP280;66422;51.202;19.936;2023-04-09T16:51:25;100108.53;;;14.89
77355;BMP280;66422;51.202;19.936;2023-04-09T17:06:44;100114.73;;;14.01
77355;BMP280;66422;51.202;19.936;2023-04-09T17:22:05;100119.52;;;13.54
77355;BMP280;66422;51.202;19.936;2023-04-09T17:37:25;100118.35;;;12.01
77355;BMP280;66422;51.202;19.936;2023-04-09T17:52:46;100141.88;;;12.21
77355;BMP280;66422;51.202;19.936;2023-04-09T18:08:05;100162.23;;;11.11
77355;BMP280;66422;51.202;19.936;2023-04-09T18:23:25;100174.95;;;10.79
77355;BMP280;66422;51.202;19.936;2023-04-09T18:38:45;100188.77;;;10.96
77355;BMP280;66422;51.202;19.936;2023-04-09T18:54:05;100213.30;;;10.21
77355;BMP280;66422;51.202;19.936;2023-04-09T19:09:25;100231.79;;;10.62
77355;BMP280;66422;51.202;19.936;2023-04-09T19:24:45;100231.42;;;10.64
77355;BMP280;66422;51.202;19.936;2023-04-09T19:40:05;100231.60;;;10.64
77355;BMP280;66422;51.202;19.936;2023-04-09T19:55:25;100226.79;;;10.49
77355;BMP280;66422;51.202;19.936;2023-04-09T20:10:44;100225.00;;;10.35
77355;BMP280;66422;51.202;19.936;2023-04-09T20:26:05;100222.94;;;10.28
77355;BMP280;66422;51.202;19.936;2023-04-09T20:41:30;100217.96;;;10.11
77355;BMP280;66422;51.202;19.936;2023-04-09T20:56:50;100214.39;;;9.64
77355;BMP280;66422;51.202;19.936;2023-04-09T21:12:09;100220.23;;;8.79
77355;BMP280;66422;51.202;19.936;2023-04-09T21:27:29;100223.50;;;9.24
77355;BMP280;66422;51.202;19.936;2023-04-09T21:42:50;100217.40;;;9.56
77355;BMP280;66422;51.202;19.936;2023-04-09T21:58:09;100221.64;;;9.32
77355;BMP280;66422;51.202;19.936;2023-04-09T22:13:30;100206.93;;;9.64
77355;BMP280;66422;51.202;19.936;2023-04-09T22:28:49;100213.04;;;10.21
77355;BMP280;66422;51.202;19.936;2023-04-09T22:44:09;100222.55;;;9.85
77355;BMP280;66422;51.202;19.936;2023-04-09T22:59:28;100215.95;;;9.46
77355;BMP280;66422;51.202;19.936;2023-04-09T23:14:49;100214.23;;;9.34
77355;BMP280;66422;51.202;19.936;2023-04-09T23:30:09;100213.61;;;9.33
77355;BMP280;66422;51.202;19.936;2023-04-09T23:45:29;100208.63;;;8.93
